sensor_id;sensor_type;location;lat;lon;timestamp;pressure;altitude;pressure_sealevel;temperature;humidity
60583;BME280;46415;47.536;19.066;2023-06-19T00:02:26;-18694.66;;;17.17;95.59
60583;BME280;46415;47.536;19.066;2023-06-19T00:05:30;-18693.44;;;17.12;96.01
60583;BME280;46415;47.536;19.066;2023-06-19T00:08:32;-18692.47;;;17.09;96.29
60583;BME280;46415;47.536;19.066;2023-06-19T00:11:35;-18692.47;;;17.09;97.19
60583;BME280;46415;47.536;19.066;2023-06-19T00:14:38;-18693.44;;;17.12;97.60
60583;BME280;46415;47.536;19.066;2023-06-19T00:17:42;-18693.97;;;17.14;97.62
60583;BME280;46415;47.536;19.066;2023-06-19T00:20:44;-18692.63;;;17.09;99.11
60583;BME280;46415;47.536;19.066;2023-06-19T00:23:49;-18693.00;;;17.11;99.04
60583;BME280;46415;47.536;19.066;2023-06-19T00:26:51;-18695.75;;;17.21;98.99
60583;BME280;46415;47.536;19.066;2023-06-19T00:29:54;-18697.09;;;17.26;98.72
60583;BME280;46415;47.536;19.066;2023-06-19T00:32:57;-18695.06;;;17.19;99.61
60583;BME280;46415;47.536;19.066;2023-06-19T00:36:00;-18691.25;;;17.04;100.00
60583;BME280;46415;47.536;19.066;2023-06-19T00:39:03;-18687.72;;;16.91;100.00
60583;BME280;46415;47.536;19.066;2023-06-19T00:42:06;-18685.13;;;16.82;100.00
60583;BME280;46415;47.536;19.066;2023-06-19T00:45:09;-18683.75;;;16.77;100.00
60583;BME280;46415;47.536;19.066;2023-06-19T00:48:12;-18682.13;;;16.70;100.00
60583;BME280;46415;47.536;19.066;2023-06-19T00:51:15;-18683.22;;;16.74;100.00
60583;BME280;46415;47.536;19.066;2023-06-19T00:54:18;-18682.66;;;16.72;100.00
60583;BME280;46415;47.536;19.066;2023-06-19T00:57:21;-18680.91;;;16.66;100.00
60583;BME280;46415;47.536;19.066;2023-06-19T01:00:24;-18678.72;;;16.58;100.00
60583;BME280;46415;47.536;19.066;2023-06-19T01:03:27;-18677.34;;;16.53;100.00
60583;BME280;46415;47.536;19.066;2023-06-19T01:09:58;-18676.69;;;16.50;100.00
60583;BME280;46415;47.536;19.066;2023-06-19T01:13:08;-18675.31;;;16.45;100.00
60583;BME280;46415;47.536;19.066;2023-06-19T01:16:13;-18672.72;;;16.36;100.00
60583;BME280;46415;47.536;19.066;2023-06-19T01:19:18;-18670.00;;;16.25;100.00
60583;BME280;46415;47.536;19.066;2023-06-19T01:22:31;-18668.37;;;16.19;100.00
60583;BME280;46415;47.536;19.066;2023-06-19T01:25:34;-18668.09;;;16.18;100.00
60583;BME280;46415;47.536;19.066;2023-06-19T01:28:40;-18666.31;;;16.12;100.00
60583;BME280;46415;47.536;19.066;2023-06-19T01:34:56;-18665.22;;;16.08;100.00
60583;BME280;46415;47.536;19.066;2023-06-19T01:38:01;-18664.28;;;16.04;100.00
60583;BME280;46415;47.536;19.066;2023-06-19T01:41:08;-18663.59;;;16.02;100.00
60583;BME280;46415;47.536;19.066;2023-06-19T01:44:11;-18666.47;;;16.12;100.00
60583;BME280;46415;47.536;19.066;2023-06-19T01:47:14;-18666.72;;;16.13;100.00
60583;BME280;46415;47.536;19.066;2023-06-19T01:50:22;-18665.22;;;16.08;100.00
60583;BME280;46415;47.536;19.066;2023-06-19T01:53:26;-18663.47;;;16.01;100.00
60583;BME280;46415;47.536;19.066;2023-06-19T01:56:29;-18662.09;;;15.96;100.00
60583;BME280;46415;47.536;19.066;2023-06-19T01:59:32;-18663.03;;;16.00;100.00
60583;BME280;46415;47.536;19.066;2023-06-19T02:02:35;-18662.78;;;15.99;100.00
60583;BME280;46415;47.536;19.066;2023-06-19T02:05:39;-18659.50;;;15.86;100.00
60583;BME280;46415;47.536;19.066;2023-06-19T02:08:42;-18660.31;;;15.89;100.00
60583;BME280;46415;47.536;19.066;2023-06-19T02:11:46;-18664.28;;;16.04;100.00
60583;BME280;46415;47.536;19.066;2023-06-19T02:14:49;-18665.22;;;16.08;100.00
60583;BME280;46415;47.536;19.066;2023-06-19T02:17:51;-18663.88;;;16.03;100.00
60583;BME280;46415;47.536;19.066;2023-06-19T02:20:58;-18663.72;;;16.02;100.00
60583;BME280;46415;47.536;19.066;2023-06-19T02:24:00;-18662.50;;;15.98;100.00
60583;BME280;46415;47.536;19.066;2023-06-19T02:27:04;-18660.59;;;15.90;100.00
60583;BME280;46415;47.536;19.066;2023-06-19T02:30:08;-18656.50;;;15.75;100.00
60583;BME280;46415;47.536;19.066;2023-06-19T02:33:11;-18658.56;;;15.83;100.00
60583;BME280;46415;47.536;19.066;2023-06-19T02:36:13;-18660.31;;;15.89;100.00
60583;BME280;46415;47.536;19.066;2023-06-19T02:39:22;-18659.09;;;15.85;100.00
60583;BME280;46415;47.536;19.066;2023-06-19T02:42:25;-18656.50;;;15.75;100.00
60583;BME280;46415;47.536;19.066;2023-06-19T02:45:28;-18653.78;;;15.65;100.00
60583;BME280;46415;47.536;19.066;2023-06-19T02:48:31;-18652.69;;;15.61;100.00
60583;BME280;46415;47.536;19.066;2023-06-19T02:51:34;-18653.78;;;15.65;100.00
60583;BME280;46415;47.536;19.066;2023-06-19T02:54:36;-18654.88;;;15.69;100.00
60583;BME280;46415;47.536;19.066;2023-06-19T02:57:39;-18653.22;;;15.63;100.00
60583;BME280;46415;47.536;19.066;2023-06-19T03:00:45;-18652.41;;;15.60;100.00
60583;BME280;46415;47.536;19.066;2023-06-19T03:03:50;-18652.41;;;15.60;100.00
60583;BME280;46415;47.536;19.066;2023-06-19T03:06:54;-18653.50;;;15.64;100.00
60583;BME280;46415;47.536;19.066;2023-06-19T03:09:57;-18654.88;;;15.69;100.00
60583;BME280;46415;47.536;19.066;2023-06-19T03:13:00;-18654.47;;;15.68;100.00
60583;BME280;46415;47.536;19.066;2023-06-19T03:16:03;-18654.47;;;15.68;100.00
60583;BME280;46415;47.536;19.066;2023-06-19T03:19:06;-18656.38;;;15.75;100.00
60583;BME280;46415;47.536;19.066;2023-06-19T03:22:10;-18656.62;;;15.76;100.00
60583;BME280;46415;47.536;19.066;2023-06-19T03:25:13;-18658.69;;;15.83;100.00
60583;BME280;46415;47.536;19.066;2023-06-19T03:28:16;-18660.72;;;15.91;100.00
60583;BME280;46415;47.536;19.066;2023-06-19T03:31:18;-18662.78;;;15.99;100.00
60583;BME280;46415;47.536;19.066;2023-06-19T03:34:22;-18664.81;;;16.06;100.00
60583;BME280;46415;47.536;19.066;2023-06-19T03:37:25;-18665.63;;;16.09;100.00
60583;BME280;46415;47.536;19.066;2023-06-19T03:40:28;-18667.81;;;16.17;100.00
60583;BME280;46415;47.536;19.066;2023-06-19T03:43:37;-18671.34;;;16.30;100.00
60583;BME280;46415;47.536;19.066;2023-06-19T03:46:40;-18673.41;;;16.38;100.00
60583;BME280;46415;47.536;19.066;2023-06-19T03:49:43;-18672.03;;;16.33;100.00
60583;BME280;46415;47.536;19.066;2023-06-19T03:52:46;-18673.13;;;16.37;100.00
60583;BME280;46415;47.536;19.066;2023-06-19T03:55:49;-18675.59;;;16.46;100.00
60583;BME280;46415;47.536;19.066;2023-06-19T03:58:52;-18678.72;;;16.58;100.00
60583;BME280;46415;47.536;19.066;2023-06-19T04:01:54;-18680.09;;;16.63;100.00
60583;BME280;46415;47.536;19.066;2023-06-19T04:04:57;-18681.31;;;16.67;100.00
60583;BME280;46415;47.536;19.066;2023-06-19T04:08:00;-18683.22;;;16.74;100.00
60583;BME280;46415;47.536;19.066;2023-06-19T04:11:03;-18683.34;;;16.75;100.00
60583;BME280;46415;47.536;19.066;2023-06-19T04:14:05;-18683.63;;;16.76;100.00
60583;BME280;46415;47.536;19.066;2023-06-19T04:17:08;-18685.66;;;16.84;100.00
60583;BME280;46415;47.536;19.066;2023-06-19T04:20:11;-18689.63;;;16.98;100.00
60583;BME280;46415;47.536;19.066;2023-06-19T04:23:14;-18696.69;;;17.25;100.00
60583;BME280;46415;47.536;19.066;2023-06-19T04:26:19;-18699.00;;;17.33;100.00
60583;BME280;46415;47.536;19.066;2023-06-19T04:29:24;-18700.09;;;17.37;100.00
60583;BME280;46415;47.536;19.066;2023-06-19T04:32:26;-18700.91;;;17.40;100.00
60583;BME280;46415;47.536;19.066;2023-06-19T04:35:29;-18704.03;;;17.52;100.00
60583;BME280;46415;47.536;19.066;2023-06-19T04:38:32;-18705.28;;;17.57;100.00
60583;BME280;46415;47.536;19.066;2023-06-19T04:41:35;-18705.28;;;17.57;100.00
60583;BME280;46415;47.536;19.066;2023-06-19T04:44:43;-18709.22;;;17.71;99.30
60583;BME280;46415;47.536;19.066;2023-06-19T04:47:45;-18713.72;;;17.88;97.88
60583;BME280;46415;47.536;19.066;2023-06-19T04:50:55;-18721.72;;;18.18;96.15
60583;BME280;46415;47.536;19.066;2023-06-19T04:53:59;-18722.41;;;18.20;95.55
60583;BME280;46415;47.536;19.066;2023-06-19T04:57:02;-18721.06;;;18.15;95.92
60583;BME280;46415;47.536;19.066;2023-06-19T05:00:05;-18717.66;;;18.03;96.81
60583;BME280;46415;47.536;19.066;2023-06-19T05:03:09;-18716.97;;;18.00;98.79
60583;BME280;46415;47.536;19.066;2023-06-19T05:06:12;-18719.41;;;18.09;98.54
60583;BME280;46415;47.536;19.066;2023-06-19T05:09:14;-18724.72;;;18.29;97.90
60583;BME280;46415;47.536;19.066;2023-06-19T05:12:17;-18725.94;;;18.33;97.36
60583;BME280;46415;47.536;19.066;2023-06-19T05:15:20;-18733.28;;;18.61;97.02
60583;BME280;46415;47.536;19.066;2023-06-19T05:18:23;-18739.16;;;18.83;95.59
60583;BME280;46415;47.536;19.066;2023-06-19T05:21:26;-18741.72;;;18.92;94.85
60583;BME280;46415;47.536;19.066;2023-06-19T05:24:29;-18742.81;;;18.96;94.93
60583;BME280;46415;47.536;19.066;2023-06-19T05:27:31;-18737.91;;;18.78;95.19
60583;BME280;46415;47.536;19.066;2023-06-19T05:30:34;-18736.69;;;18.73;96.22
60583;BME280;46415;47.536;19.066;2023-06-19T05:33:38;-18733.28;;;18.61;96.63
60583;BME280;46415;47.536;19.066;2023-06-19T05:36:41;-18734.38;;;18.65;96.42
60583;BME280;46415;47.536;19.066;2023-06-19T05:39:44;-18740.91;;;18.89;94.61
60583;BME280;46415;47.536;19.066;2023-06-19T05:42:47;-18745.41;;;19.06;92.94
60583;BME280;46415;47.536;19.066;2023-06-19T05:45:49;-18754.50;;;19.40;90.41
60583;BME280;46415;47.536;19.066;2023-06-19T05:48:52;-18763.06;;;19.72;89.57
60583;BME280;46415;47.536;19.066;2023-06-19T05:51:57;-18770.66;;;20.00;86.63
60583;BME280;46415;47.536;19.066;2023-06-19T05:55:01;-18775.69;;;20.19;83.90
60583;BME280;46415;47.536;19.066;2023-06-19T05:58:04;-18780.31;;;20.36;82.72
60583;BME280;46415;47.536;19.066;2023-06-19T06:01:07;-18784.91;;;20.53;81.69
60583;BME280;46415;47.536;19.066;2023-06-19T06:04:10;-18787.09;;;20.61;80.69
60583;BME280;46415;47.536;19.066;2023-06-19T06:07:13;-18793.59;;;20.86;78.87
60583;BME280;46415;47.536;19.066;2023-06-19T06:10:16;-18795.50;;;20.93;80.10
60583;BME280;46415;47.536;19.066;2023-06-19T06:13:19;-18799.03;;;21.06;78.67
60583;BME280;46415;47.536;19.066;2023-06-19T06:16:22;-18801.88;;;21.16;77.78
60583;BME280;46415;47.536;19.066;2023-06-19T06:19:24;-18801.75;;;21.16;78.52
60583;BME280;46415;47.536;19.066;2023-06-19T06:22:28;-18807.84;;;21.39;77.50
60583;BME280;46415;47.536;19.066;2023-06-19T06:25:31;-18814.09;;;21.62;76.40
60583;BME280;46415;47.536;19.066;2023-06-19T06:28:34;-18813.81;;;21.61;75.38
60583;BME280;46415;47.536;19.066;2023-06-19T06:31:38;-18818.28;;;21.78;75.80
60583;BME280;46415;47.536;19.066;2023-06-19T06:34:41;-18823.44;;;21.97;75.13
60583;BME280;46415;47.536;19.066;2023-06-19T06:37:43;-18827.22;;;22.11;73.59
60583;BME280;46415;47.536;19.066;2023-06-19T06:40:48;-18831.69;;;22.28;73.71
60583;BME280;46415;47.536;19.066;2023-06-19T06:43:52;-18837.25;;;22.49;70.02
60583;BME280;46415;47.536;19.066;2023-06-19T06:46:56;-18837.53;;;22.50;69.88
60583;BME280;46415;47.536;19.066;2023-06-19T06:49:59;-18840.09;;;22.59;69.09
60583;BME280;46415;47.536;19.066;2023-06-19T06:53:02;-18842.25;;;22.67;67.01
60583;BME280;46415;47.536;19.066;2023-06-19T06:56:05;-18835.34;;;22.42;66.96
60583;BME280;46415;47.536;19.066;2023-06-19T06:59:08;-18836.84;;;22.47;69.05
60583;BME280;46415;47.536;19.066;2023-06-19T07:02:10;-18842.25;;;22.67;66.78
60583;BME280;46415;47.536;19.066;2023-06-19T07:05:13;-18847.94;;;22.89;65.60
60583;BME280;46415;47.536;19.066;2023-06-19T07:08:16;-18849.72;;;22.95;64.97
60583;BME280;46415;47.536;19.066;2023-06-19T07:11:19;-18849.19;;;22.93;66.45
60583;BME280;46415;47.536;19.066;2023-06-19T07:14:22;-18858.50;;;23.28;65.82
60583;BME280;46415;47.536;19.066;2023-06-19T07:17:25;-18860.53;;;23.36;66.82
60583;BME280;46415;47.536;19.066;2023-06-19T07:20:27;-18862.97;;;23.45;64.86
60583;BME280;46415;47.536;19.066;2023-06-19T07:23:30;-18859.31;;;23.31;65.58
60583;BME280;46415;47.536;19.066;2023-06-19T07:26:33;-18864.88;;;23.52;65.65
60583;BME280;46415;47.536;19.066;2023-06-19T07:29:36;-18869.34;;;23.69;64.57
60583;BME280;46415;47.536;19.066;2023-06-19T07:32:39;-18866.91;;;23.59;63.04
60583;BME280;46415;47.536;19.066;2023-06-19T07:35:42;-18869.75;;;23.70;64.03
60583;BME280;46415;47.536;19.066;2023-06-19T07:38:45;-18875.41;;;23.91;63.67
60583;BME280;46415;47.536;19.066;2023-06-19T07:41:48;-18885.84;;;24.30;61.00
60583;BME280;46415;47.536;19.066;2023-06-19T07:44:51;-18889.09;;;24.43;58.93
60583;BME280;46415;47.536;19.066;2023-06-19T07:47:55;-18897.06;;;24.72;58.17
60583;BME280;46415;47.536;19.066;2023-06-19T07:50:58;-18901.78;;;24.90;57.63
60583;BME280;46415;47.536;19.066;2023-06-19T07:54:01;-18905.44;;;25.04;58.39
60583;BME280;46415;47.536;19.066;2023-06-19T07:57:03;-18911.38;;;25.26;57.88
60583;BME280;46415;47.536;19.066;2023-06-19T08:00:07;-18918.81;;;25.54;57.17
60583;BME280;46415;47.536;19.066;2023-06-19T08:03:14;-18918.53;;;25.53;55.67
60583;BME280;46415;47.536;19.066;2023-06-19T08:06:16;-18924.47;;;25.75;54.15
60583;BME280;46415;47.536;19.066;2023-06-19T08:09:19;-18926.50;;;25.83;53.30
60583;BME280;46415;47.536;19.066;2023-06-19T08:12:22;-18923.41;;;25.71;52.04
60583;BME280;46415;47.536;19.066;2023-06-19T08:15:25;-18929.59;;;25.94;52.88
60583;BME280;46415;47.536;19.066;2023-06-19T08:18:27;-18938.66;;;26.28;53.69
60583;BME280;46415;47.536;19.066;2023-06-19T08:21:31;-18946.34;;;26.57;52.50
60583;BME280;46415;47.536;19.066;2023-06-19T08:24:34;-18952.13;;;26.79;50.57
60583;BME280;46415;47.536;19.066;2023-06-19T08:27:39;-18947.53;;;26.62;51.09
60583;BME280;46415;47.536;19.066;2023-06-19T08:30:42;-18960.91;;;27.12;50.98
60583;BME280;46415;47.536;19.066;2023-06-19T08:33:46;-18953.63;;;26.85;50.73
60583;BME280;46415;47.536;19.066;2023-06-19T08:36:53;-18950.25;;;26.72;50.95
60583;BME280;46415;47.536;19.066;2023-06-19T08:39:56;-18955.63;;;26.92;49.96
60583;BME280;46415;47.536;19.066;2023-06-19T08:42:58;-18946.88;;;26.59;50.15
60583;BME280;46415;47.536;19.066;2023-06-19T08:46:11;-18942.16;;;26.41;51.00
60583;BME280;46415;47.536;19.066;2023-06-19T08:49:14;-18947.00;;;26.60;52.82
60583;BME280;46415;47.536;19.066;2023-06-19T08:52:18;-18959.28;;;27.06;49.92
60583;BME280;46415;47.536;19.066;2023-06-19T08:55:20;-18961.56;;;27.14;49.05
60583;BME280;46415;47.536;19.066;2023-06-19T08:58:25;-18968.97;;;27.42;48.49
60583;BME280;46415;47.536;19.066;2023-06-19T09:01:28;-18975.72;;;27.68;46.56
60583;BME280;46415;47.536;19.066;2023-06-19T09:04:31;-18978.13;;;27.77;47.27
60583;BME280;46415;47.536;19.066;2023-06-19T09:07:34;-18980.28;;;27.85;46.79
60583;BME280;46415;47.536;19.066;2023-06-19T09:10:37;-18991.59;;;28.27;45.71
60583;BME280;46415;47.536;19.066;2023-06-19T09:13:39;-19004.41;;;28.75;42.90
60583;BME280;46415;47.536;19.066;2023-06-19T09:16:42;-18998.59;;;28.54;42.33
60583;BME280;46415;47.536;19.066;2023-06-19T09:19:52;-19010.03;;;28.97;43.06
60583;BME280;46415;47.536;19.066;2023-06-19T09:22:56;-19020.00;;;29.34;40.21
60583;BME280;46415;47.536;19.066;2023-06-19T09:25:59;-19027.53;;;29.62;40.12
60583;BME280;46415;47.536;19.066;2023-06-19T09:29:14;-19022.28;;;29.43;39.78
60583;BME280;46415;47.536;19.066;2023-06-19T09:32:25;-19020.81;;;29.37;39.80
60583;BME280;46415;47.536;19.066;2023-06-19T09:35:28;-19030.22;;;29.73;38.70
60583;BME280;46415;47.536;19.066;2023-06-19T09:38:34;-19032.09;;;29.80;39.08
60583;BME280;46415;47.536;19.066;2023-06-19T09:41:39;-19027.25;;;29.61;37.24
60583;BME280;46415;47.536;19.066;2023-06-19T09:44:45;-19023.91;;;29.49;36.84
60583;BME280;46415;47.536;19.066;2023-06-19T09:47:52;-19017.97;;;29.27;36.98
60583;BME280;46415;47.536;19.066;2023-06-19T09:51:37;-19009.91;;;28.96;36.96
60583;BME280;46415;47.536;19.066;2023-06-19T09:54:41;-19012.06;;;29.04;39.20
60583;BME280;46415;47.536;19.066;2023-06-19T09:57:46;-19009.38;;;28.94;40.17
60583;BME280;46415;47.536;19.066;2023-06-19T10:00:51;-19009.38;;;28.94;40.14
60583;BME280;46415;47.536;19.066;2023-06-19T10:04:08;-19013.81;;;29.11;39.85
60583;BME280;46415;47.536;19.066;2023-06-19T10:07:17;-19028.31;;;29.66;38.40
60583;BME280;46415;47.536;19.066;2023-06-19T10:10:25;-19036.12;;;29.95;38.04
60583;BME280;46415;47.536;19.066;2023-06-19T10:13:35;-19030.75;;;29.75;37.09
60583;BME280;46415;47.536;19.066;2023-06-19T10:16:40;-19025.38;;;29.54;36.96
60583;BME280;46415;47.536;19.066;2023-06-19T10:19:50;-19038.81;;;30.05;37.30
60583;BME280;46415;47.536;19.066;2023-06-19T10:26:07;-19049.53;;;30.46;35.39
60583;BME280;46415;47.536;19.066;2023-06-19T10:29:17;-19046.47;;;30.34;35.11
60583;BME280;46415;47.536;19.066;2023-06-19T10:32:21;-19044.03;;;30.25;35.28
60583;BME280;46415;47.536;19.066;2023-06-19T10:35:24;-19039.06;;;30.06;35.50
60583;BME280;46415;47.536;19.066;2023-06-19T10:38:28;-19039.88;;;30.09;34.58
60583;BME280;46415;47.536;19.066;2023-06-19T10:41:31;-19041.09;;;30.14;35.05
60583;BME280;46415;47.536;19.066;2023-06-19T10:44:34;-19049.69;;;30.46;35.07
60583;BME280;46415;47.536;19.066;2023-06-19T10:47:39;-19045.38;;;30.30;35.53
60583;BME280;46415;47.536;19.066;2023-06-19T10:50:42;-19055.19;;;30.67;34.75
60583;BME280;46415;47.536;19.066;2023-06-19T10:53:45;-19056.81;;;30.73;34.45
60583;BME280;46415;47.536;19.066;2023-06-19T10:56:48;-19050.38;;;30.49;33.75
60583;BME280;46415;47.536;19.066;2023-06-19T10:59:51;-19055.19;;;30.67;34.02
60583;BME280;46415;47.536;19.066;2023-06-19T11:02:58;-19061.63;;;30.91;33.09
60583;BME280;46415;47.536;19.066;2023-06-19T11:06:01;-19052.09;;;30.55;34.02
60583;BME280;46415;47.536;19.066;2023-06-19T11:09:05;-19047.53;;;30.38;33.61
60583;BME280;46415;47.536;19.066;2023-06-19T11:12:09;-19040.41;;;30.11;34.61
60583;BME280;46415;47.536;19.066;2023-06-19T11:15:12;-19043.78;;;30.24;34.59
60583;BME280;46415;47.536;19.066;2023-06-19T11:18:16;-19051.56;;;30.53;34.33
60583;BME280;46415;47.536;19.066;2023-06-19T11:21:19;-19060.69;;;30.88;33.76
60583;BME280;46415;47.536;19.066;2023-06-19T11:24:23;-19062.97;;;30.96;33.93
60583;BME280;46415;47.536;19.066;2023-06-19T11:27:26;-19068.63;;;31.17;33.85
60583;BME280;46415;47.536;19.066;2023-06-19T11:30:31;-19075.44;;;31.43;32.54
60583;BME280;46415;47.536;19.066;2023-06-19T11:33:34;-19075.72;;;31.44;32.01
60583;BME280;46415;47.536;19.066;2023-06-19T11:36:38;-19079.06;;;31.57;32.77
60583;BME280;46415;47.536;19.066;2023-06-19T11:39:45;-19082.81;;;31.71;31.75
60583;BME280;46415;47.536;19.066;2023-06-19T11:42:52;-19082.56;;;31.70;31.45
60583;BME280;46415;47.536;19.066;2023-06-19T11:46:02;-19088.31;;;31.92;31.20
60583;BME280;46415;47.536;19.066;2023-06-19T11:49:18;-19090.34;;;31.99;31.59
60583;BME280;46415;47.536;19.066;2023-06-19T11:52:21;-19097.84;;;32.28;30.31
60583;BME280;46415;47.536;19.066;2023-06-19T11:55:24;-19104.28;;;32.52;29.89
60583;BME280;46415;47.536;19.066;2023-06-19T11:58:27;-19099.31;;;32.33;30.64
60583;BME280;46415;47.536;19.066;2023-06-19T12:01:34;-19098.91;;;32.32;30.91
60583;BME280;46415;47.536;19.066;2023-06-19T12:04:37;-19093.56;;;32.12;30.08
60583;BME280;46415;47.536;19.066;2023-06-19T12:07:40;-19099.44;;;32.34;30.69
60583;BME280;46415;47.536;19.066;2023-06-19T12:10:43;-19111.63;;;32.80;30.46
60583;BME280;46415;47.536;19.066;2023-06-19T12:13:45;-19122.06;;;33.19;29.83
60583;BME280;46415;47.536;19.066;2023-06-19T12:16:48;-19125.97;;;33.34;29.27
60583;BME280;46415;47.536;19.066;2023-06-19T12:19:51;-19131.56;;;33.55;28.83
60583;BME280;46415;47.536;19.066;2023-06-19T12:22:55;-19129.44;;;33.47;28.79
60583;BME280;46415;47.536;19.066;2023-06-19T12:25:58;-19130.78;;;33.52;28.92
60583;BME280;46415;47.536;19.066;2023-06-19T12:29:01;-19136.12;;;33.73;28.89
60583;BME280;46415;47.536;19.066;2023-06-19T12:32:04;-19126.22;;;33.35;28.66
60583;BME280;46415;47.536;19.066;2023-06-19T12:35:07;-19111.78;;;32.80;29.65
60583;BME280;46415;47.536;19.066;2023-06-19T12:38:10;-19105.88;;;32.58;29.65
60583;BME280;46415;47.536;19.066;2023-06-19T12:41:13;-19099.19;;;32.33;30.54
60583;BME280;46415;47.536;19.066;2023-06-19T12:44:16;-19107.09;;;32.63;29.90
60583;BME280;46415;47.536;19.066;2023-06-19T12:47:19;-19111.50;;;32.79;30.04
60583;BME280;46415;47.536;19.066;2023-06-19T12:50:23;-19120.19;;;33.12;29.48
60583;BME280;46415;47.536;19.066;2023-06-19T12:53:26;-19114.44;;;32.91;28.67
60583;BME280;46415;47.536;19.066;2023-06-19T12:56:31;-19099.19;;;32.33;29.96
60583;BME280;46415;47.536;19.066;2023-06-19T12:59:34;-19104.53;;;32.53;30.81
60583;BME280;46415;47.536;19.066;2023-06-19T13:02:38;-19112.03;;;32.81;30.07
60583;BME280;46415;47.536;19.066;2023-06-19T13:05:42;-19103.19;;;32.48;30.15
60583;BME280;46415;47.536;19.066;2023-06-19T13:08:45;-19107.22;;;32.63;29.89
60583;BME280;46415;47.536;19.066;2023-06-19T13:11:48;-19103.72;;;32.50;30.00
60583;BME280;46415;47.536;19.066;2023-06-19T13:14:52;-19101.19;;;32.40;29.92
60583;BME280;46415;47.536;19.066;2023-06-19T13:17:55;-19100.78;;;32.39;30.63
60583;BME280;46415;47.536;19.066;2023-06-19T13:20:57;-19078.81;;;31.56;30.90
60583;BME280;46415;47.536;19.066;2023-06-19T13:24:00;-19068.47;;;31.17;31.51
60583;BME280;46415;47.536;19.066;2023-06-19T13:27:03;-19062.97;;;30.96;32.00
60583;BME280;46415;47.536;19.066;2023-06-19T13:30:06;-19056.25;;;30.71;31.93
60583;BME280;46415;47.536;19.066;2023-06-19T13:33:09;-19049.53;;;30.46;32.35
60583;BME280;46415;47.536;19.066;2023-06-19T13:36:13;-19046.59;;;30.34;32.66
60583;BME280;46415;47.536;19.066;2023-06-19T13:39:16;-19049.00;;;30.43;33.52
60583;BME280;46415;47.536;19.066;2023-06-19T13:42:21;-19055.72;;;30.69;33.36
60583;BME280;46415;47.536;19.066;2023-06-19T13:45:24;-19060.03;;;30.85;32.89
60583;BME280;46415;47.536;19.066;2023-06-19T13:48:27;-19066.19;;;31.08;32.92
60583;BME280;46415;47.536;19.066;2023-06-19T13:51:30;-19066.19;;;31.08;32.80
60583;BME280;46415;47.536;19.066;2023-06-19T13:54:33;-19064.19;;;31.01;32.72
60583;BME280;46415;47.536;19.066;2023-06-19T13:57:36;-19061.50;;;30.91;32.33
60583;BME280;46415;47.536;19.066;2023-06-19T14:00:40;-19071.56;;;31.29;32.86
60583;BME280;46415;47.536;19.066;2023-06-19T14:03:43;-19087.91;;;31.90;31.26
60583;BME280;46415;47.536;19.066;2023-06-19T14:06:47;-19095.16;;;32.18;30.89
60583;BME280;46415;47.536;19.066;2023-06-19T14:09:50;-19091.69;;;32.05;30.77
60583;BME280;46415;47.536;19.066;2023-06-19T14:12:55;-19092.59;;;32.08;31.62
60583;BME280;46415;47.536;19.066;2023-06-19T14:15:58;-19101.72;;;32.42;30.94
60583;BME280;46415;47.536;19.066;2023-06-19T14:19:01;-19111.50;;;32.79;30.52
60583;BME280;46415;47.536;19.066;2023-06-19T14:22:06;-19122.22;;;33.20;29.88
60583;BME280;46415;47.536;19.066;2023-06-19T14:25:16;-19133.44;;;33.62;29.82
60583;BME280;46415;47.536;19.066;2023-06-19T14:28:19;-19143.06;;;33.99;28.43
60583;BME280;46415;47.536;19.066;2023-06-19T14:31:21;-19142.94;;;33.98;28.52
60583;BME280;46415;47.536;19.066;2023-06-19T14:34:24;-19148.81;;;34.21;28.25
60583;BME280;46415;47.536;19.066;2023-06-19T14:37:27;-19133.31;;;33.62;28.70
60583;BME280;46415;47.536;19.066;2023-06-19T14:40:30;-19115.25;;;32.94;30.21
60583;BME280;46415;47.536;19.066;2023-06-19T14:43:33;-19099.03;;;32.32;31.22
60583;BME280;46415;47.536;19.066;2023-06-19T14:46:37;-19092.34;;;32.07;31.50
60583;BME280;46415;47.536;19.066;2023-06-19T14:49:41;-19123.28;;;33.24;29.55
60583;BME280;46415;47.536;19.066;2023-06-19T14:52:45;-19146.00;;;34.10;28.01
60583;BME280;46415;47.536;19.066;2023-06-19T14:55:47;-19194.63;;;35.94;26.47
60583;BME280;46415;47.536;19.066;2023-06-19T14:58:50;-19216.75;;;36.78;25.81
60583;BME280;46415;47.536;19.066;2023-06-19T15:01:53;-19276.34;;;39.05;23.13
60583;BME280;46415;47.536;19.066;2023-06-19T15:04:56;-19322.38;;;40.81;22.34
60583;BME280;46415;47.536;19.066;2023-06-19T15:08:08;-19342.91;;;41.60;19.57
60583;BME280;46415;47.536;19.066;2023-06-19T15:11:12;-19355.34;;;42.07;19.31
60583;BME280;46415;47.536;19.066;2023-06-19T15:14:15;-19374.25;;;42.80;18.32
60583;BME280;46415;47.536;19.066;2023-06-19T15:21:49;-19401.97;;;43.86;17.97
60583;BME280;46415;47.536;19.066;2023-06-19T15:24:52;-19411.19;;;44.21;17.11
60583;BME280;46415;47.536;19.066;2023-06-19T15:27:54;-19414.25;;;44.33;17.19
60583;BME280;46415;47.536;19.066;2023-06-19T15:30:57;-19433.47;;;45.07;16.61
60583;BME280;46415;47.536;19.066;2023-06-19T15:34:00;-19435.59;;;45.15;16.44
60583;BME280;46415;47.536;19.066;2023-06-19T15:37:04;-19426.22;;;44.79;16.98
60583;BME280;46415;47.536;19.066;2023-06-19T15:40:07;-19430.97;;;44.97;16.74
60583;BME280;46415;47.536;19.066;2023-06-19T15:43:10;-19426.88;;;44.82;16.74
60583;BME280;46415;47.536;19.066;2023-06-19T15:46:14;-19426.62;;;44.81;17.03
60583;BME280;46415;47.536;19.066;2023-06-19T15:49:17;-19437.69;;;45.23;16.39
60583;BME280;46415;47.536;19.066;2023-06-19T15:52:20;-19429.13;;;44.90;17.08
60583;BME280;46415;47.536;19.066;2023-06-19T15:55:24;-19435.59;;;45.15;17.09
60583;BME280;46415;47.536;19.066;2023-06-19T15:58:27;-19422.66;;;44.65;17.32
60583;BME280;46415;47.536;19.066;2023-06-19T16:01:30;-19412.13;;;44.25;17.39